sensor_id;sensor_type;location;lat;lon;timestamp;P1;durP1;ratioP1;P2;durP2;ratioP2
1350;SDS011;669;50.206;9.998;2022-08-03T00:01:40;2.10;;;2.00;;
1350;SDS011;669;50.206;9.998;2022-08-03T00:04:09;2.27;;;2.17;;
1350;SDS011;669;50.206;9.998;2022-08-03T00:06:37;2.00;;;1.90;;
1350;SDS011;669;50.206;9.998;2022-08-03T00:09:05;2.93;;;2.00;;
1350;SDS011;669;50.206;9.998;2022-08-03T00:11:33;1.60;;;1.60;;
1350;SDS011;669;50.206;9.998;2022-08-03T00:14:03;2.30;;;2.20;;
1350;SDS011;669;50.206;9.998;2022-08-03T00:16:32;2.60;;;2.00;;
1350;SDS011;669;50.206;9.998;2022-08-03T00:19:00;2.87;;;2.67;;
1350;SDS011;669;50.206;9.998;2022-08-03T00:21:29;2.60;;;2.40;;
1350;SDS011;669;50.206;9.998;2022-08-03T00:23:57;2.40;;;2.30;;
1350;SDS011;669;50.206;9.998;2022-08-03T00:26:25;2.40;;;2.30;;
1350;SDS011;669;50.206;9.998;2022-08-03T00:28:53;2.80;;;2.60;;
1350;SDS011;669;50.206;9.998;2022-08-03T00:31:22;2.70;;;2.50;;
1350;SDS011;669;50.206;9.998;2022-08-03T00:34:10;2.37;;;2.20;;
1350;SDS011;669;50.206;9.998;2022-08-03T00:36:38;1.90;;;1.80;;
1350;SDS011;669;50.206;9.998;2022-08-03T00:39:06;2.43;;;2.23;;
1350;SDS011;669;50.206;9.998;2022-08-03T00:41:35;2.63;;;2.50;;
1350;SDS011;669;50.206;9.998;2022-08-03T00:44:03;2.40;;;2.20;;
1350;SDS011;669;50.206;9.998;2022-08-03T00:46:32;2.20;;;2.10;;
1350;SDS011;669;50.206;9.998;2022-08-03T00:49:00;2.20;;;2.10;;
1350;SDS011;669;50.206;9.998;2022-08-03T00:51:29;2.00;;;1.90;;
1350;SDS011;669;50.206;9.998;2022-08-03T00:53:57;2.30;;;2.20;;
1350;SDS011;669;50.206;9.998;2022-08-03T00:56:25;1.97;;;1.87;;
1350;SDS011;669;50.206;9.998;2022-08-03T00:58:53;2.33;;;2.23;;
1350;SDS011;669;50.206;9.998;2022-08-03T01:01:23;2.10;;;2.00;;
1350;SDS011;669;50.206;9.998;2022-08-03T01:03:58;2.10;;;2.00;;
1350;SDS011;669;50.206;9.998;2022-08-03T01:06:29;1.77;;;1.73;;
1350;SDS011;669;50.206;9.998;2022-08-03T01:09:07;2.17;;;2.07;;
1350;SDS011;669;50.206;9.998;2022-08-03T01:11:42;2.30;;;2.17;;
1350;SDS011;669;50.206;9.998;2022-08-03T01:14:29;1.80;;;1.70;;
1350;SDS011;669;50.206;9.998;2022-08-03T01:17:01;2.17;;;2.07;;
1350;SDS011;669;50.206;9.998;2022-08-03T01:19:43;2.60;;;2.40;;
1350;SDS011;669;50.206;9.998;2022-08-03T01:22:36;2.10;;;2.00;;
1350;SDS011;669;50.206;9.998;2022-08-03T01:25:23;2.33;;;2.23;;
1350;SDS011;669;50.206;9.998;2022-08-03T01:28:01;2.50;;;2.30;;
1350;SDS011;669;50.206;9.998;2022-08-03T01:30:43;2.37;;;2.17;;
1350;SDS011;669;50.206;9.998;2022-08-03T01:33:14;2.47;;;2.10;;
1350;SDS011;669;50.206;9.998;2022-08-03T01:35:46;2.20;;;2.10;;
1350;SDS011;669;50.206;9.998;2022-08-03T01:38:21;2.90;;;2.00;;
1350;SDS011;669;50.206;9.998;2022-08-03T01:40:52;2.50;;;2.30;;
1350;SDS011;669;50.206;9.998;2022-08-03T01:43:22;2.00;;;1.90;;
1350;SDS011;669;50.206;9.998;2022-08-03T01:46:16;2.33;;;2.20;;
1350;SDS011;669;50.206;9.998;2022-08-03T01:48:46;2.30;;;2.20;;
1350;SDS011;669;50.206;9.998;2022-08-03T01:51:15;2.27;;;2.13;;
1350;SDS011;669;50.206;9.998;2022-08-03T01:53:45;2.20;;;2.10;;
1350;SDS011;669;50.206;9.998;2022-08-03T01:56:16;2.03;;;1.93;;
1350;SDS011;669;50.206;9.998;2022-08-03T01:58:46;2.10;;;2.00;;
1350;SDS011;669;50.206;9.998;2022-08-03T02:01:18;2.60;;;2.40;;
1350;SDS011;669;50.206;9.998;2022-08-03T02:03:48;2.87;;;2.67;;
1350;SDS011;669;50.206;9.998;2022-08-03T02:06:26;3.10;;;2.37;;
1350;SDS011;669;50.206;9.998;2022-08-03T02:09:15;2.37;;;2.27;;
1350;SDS011;669;50.206;9.998;2022-08-03T02:11:46;2.20;;;2.10;;
1350;SDS011;669;50.206;9.998;2022-08-03T02:14:15;2.17;;;2.07;;
1350;SDS011;669;50.206;9.998;2022-08-03T02:16:46;2.33;;;2.23;;
1350;SDS011;669;50.206;9.998;2022-08-03T02:19:16;2.20;;;2.10;;
1350;SDS011;669;50.206;9.998;2022-08-03T02:21:45;2.53;;;2.33;;
1350;SDS011;669;50.206;9.998;2022-08-03T02:24:26;2.27;;;2.17;;
1350;SDS011;669;50.206;9.998;2022-08-03T02:26:55;2.80;;;2.60;;
1350;SDS011;669;50.206;9.998;2022-08-03T02:29:24;2.33;;;2.23;;
1350;SDS011;669;50.206;9.998;2022-08-03T02:32:07;3.37;;;2.30;;
1350;SDS011;669;50.206;9.998;2022-08-03T02:34:38;3.00;;;2.80;;
1350;SDS011;669;50.206;9.998;2022-08-03T02:37:08;2.50;;;2.30;;
1350;SDS011;669;50.206;9.998;2022-08-03T02:39:38;3.00;;;2.80;;
1350;SDS011;669;50.206;9.998;2022-08-03T02:42:07;3.37;;;3.07;;
1350;SDS011;669;50.206;9.998;2022-08-03T02:44:38;2.00;;;1.90;;
1350;SDS011;669;50.206;9.998;2022-08-03T02:47:14;2.40;;;2.30;;
1350;SDS011;669;50.206;9.998;2022-08-03T02:49:46;2.60;;;2.50;;
1350;SDS011;669;50.206;9.998;2022-08-03T02:52:18;2.53;;;2.33;;
1350;SDS011;669;50.206;9.998;2022-08-03T02:54:49;2.20;;;2.10;;
1350;SDS011;669;50.206;9.998;2022-08-03T02:57:21;2.50;;;2.40;;
1350;SDS011;669;50.206;9.998;2022-08-03T02:59:51;2.00;;;1.90;;
1350;SDS011;669;50.206;9.998;2022-08-03T03:02:21;2.63;;;2.47;;
1350;SDS011;669;50.206;9.998;2022-08-03T03:04:50;2.67;;;2.47;;
1350;SDS011;669;50.206;9.998;2022-08-03T03:07:39;2.60;;;2.50;;
1350;SDS011;669;50.206;9.998;2022-08-03T03:10:18;2.17;;;2.07;;
1350;SDS011;669;50.206;9.998;2022-08-03T03:12:48;2.30;;;2.20;;
1350;SDS011;669;50.206;9.998;2022-08-03T03:15:17;3.10;;;2.80;;
1350;SDS011;669;50.206;9.998;2022-08-03T03:17:47;2.50;;;2.37;;
1350;SDS011;669;50.206;9.998;2022-08-03T03:20:17;2.43;;;2.33;;
1350;SDS011;669;50.206;9.998;2022-08-03T03:22:55;2.77;;;2.57;;
1350;SDS011;669;50.206;9.998;2022-08-03T03:25:25;2.33;;;2.23;;
1350;SDS011;669;50.206;9.998;2022-08-03T03:27:54;3.07;;;2.87;;
1350;SDS011;669;50.206;9.998;2022-08-03T03:30:22;2.80;;;2.70;;
1350;SDS011;669;50.206;9.998;2022-08-03T03:32:53;3.33;;;3.13;;
1350;SDS011;669;50.206;9.998;2022-08-03T03:35:21;2.67;;;2.47;;
1350;SDS011;669;50.206;9.998;2022-08-03T03:37:49;2.77;;;2.57;;
1350;SDS011;669;50.206;9.998;2022-08-03T03:40:19;2.40;;;2.30;;
1350;SDS011;669;50.206;9.998;2022-08-03T03:42:48;2.27;;;2.17;;
1350;SDS011;669;50.206;9.998;2022-08-03T03:45:16;1.90;;;1.80;;
1350;SDS011;669;50.206;9.998;2022-08-03T03:47:45;3.13;;;2.80;;
1350;SDS011;669;50.206;9.998;2022-08-03T03:50:14;2.90;;;2.70;;
1350;SDS011;669;50.206;9.998;2022-08-03T03:52:45;2.37;;;2.27;;
1350;SDS011;669;50.206;9.998;2022-08-03T03:55:16;2.60;;;2.40;;
1350;SDS011;669;50.206;9.998;2022-08-03T03:57:44;2.80;;;2.20;;
1350;SDS011;669;50.206;9.998;2022-08-03T04:00:13;2.73;;;2.53;;
1350;SDS011;669;50.206;9.998;2022-08-03T04:02:42;2.60;;;2.40;;
1350;SDS011;669;50.206;9.998;2022-08-03T04:05:10;3.50;;;3.20;;
1350;SDS011;669;50.206;9.998;2022-08-03T04:07:58;2.50;;;2.30;;
1350;SDS011;669;50.206;9.998;2022-08-03T04:10:47;2.33;;;2.23;;
1350;SDS011;669;50.206;9.998;2022-08-03T04:13:28;2.80;;;2.60;;
1350;SDS011;669;50.206;9.998;2022-08-03T04:15:59;2.57;;;2.27;;
1350;SDS011;669;50.206;9.998;2022-08-03T04:18:29;2.73;;;2.57;;
1350;SDS011;669;50.206;9.998;2022-08-03T04:21:00;2.70;;;2.60;;
1350;SDS011;669;50.206;9.998;2022-08-03T04:23:32;2.90;;;2.70;;
1350;SDS011;669;50.206;9.998;2022-08-03T04:26:02;2.80;;;2.60;;
1350;SDS011;669;50.206;9.998;2022-08-03T04:28:34;3.77;;;2.73;;
1350;SDS011;669;50.206;9.998;2022-08-03T04:31:05;2.57;;;2.47;;
1350;SDS011;669;50.206;9.998;2022-08-03T04:33:34;2.33;;;2.13;;
1350;SDS011;669;50.206;9.998;2022-08-03T04:36:05;2.93;;;1.80;;
1350;SDS011;669;50.206;9.998;2022-08-03T04:38:38;2.03;;;1.93;;
1350;SDS011;669;50.206;9.998;2022-08-03T04:41:09;2.27;;;2.17;;
1350;SDS011;669;50.206;9.998;2022-08-03T04:43:39;1.80;;;1.70;;
1350;SDS011;669;50.206;9.998;2022-08-03T04:46:07;2.70;;;2.57;;
1350;SDS011;669;50.206;9.998;2022-08-03T04:48:36;2.10;;;2.00;;
1350;SDS011;669;50.206;9.998;2022-08-03T04:51:10;2.00;;;1.90;;
1350;SDS011;669;50.206;9.998;2022-08-03T04:53:40;1.90;;;1.80;;
1350;SDS011;669;50.206;9.998;2022-08-03T04:56:09;5.53;;;2.40;;
1350;SDS011;669;50.206;9.998;2022-08-03T04:58:37;10.17;;;2.50;;
1350;SDS011;669;50.206;9.998;2022-08-03T05:01:05;2.50;;;2.30;;
1350;SDS011;669;50.206;9.998;2022-08-03T05:03:33;3.73;;;2.50;;
1350;SDS011;669;50.206;9.998;2022-08-03T05:06:01;5.00;;;2.20;;
1350;SDS011;669;50.206;9.998;2022-08-03T05:08:37;2.23;;;2.13;;
1350;SDS011;669;50.206;9.998;2022-08-03T05:11:13;2.30;;;2.13;;
1350;SDS011;669;50.206;9.998;2022-08-03T05:13:41;5.97;;;2.10;;
1350;SDS011;669;50.206;9.998;2022-08-03T05:16:09;1.90;;;1.80;;
1350;SDS011;669;50.206;9.998;2022-08-03T05:18:39;3.73;;;2.60;;
1350;SDS011;669;50.206;9.998;2022-08-03T05:21:07;4.33;;;2.80;;
1350;SDS011;669;50.206;9.998;2022-08-03T05:23:35;3.67;;;2.67;;
1350;SDS011;669;50.206;9.998;2022-08-03T05:26:03;4.97;;;2.10;;
1350;SDS011;669;50.206;9.998;2022-08-03T05:28:33;2.60;;;2.40;;
1350;SDS011;669;50.206;9.998;2022-08-03T05:31:01;2.43;;;2.23;;
1350;SDS011;669;50.206;9.998;2022-08-03T05:33:28;2.53;;;2.33;;
1350;SDS011;669;50.206;9.998;2022-08-03T05:35:56;2.50;;;1.80;;
1350;SDS011;669;50.206;9.998;2022-08-03T05:38:29;1.90;;;1.80;;
1350;SDS011;669;50.206;9.998;2022-08-03T05:41:01;2.30;;;2.10;;
1350;SDS011;669;50.206;9.998;2022-08-03T05:43:49;2.67;;;1.90;;
1350;SDS011;669;50.206;9.998;2022-08-03T05:46:18;3.53;;;2.20;;
1350;SDS011;669;50.206;9.998;2022-08-03T05:48:46;4.27;;;2.10;;
1350;SDS011;669;50.206;9.998;2022-08-03T05:51:14;3.00;;;2.40;;
1350;SDS011;669;50.206;9.998;2022-08-03T05:53:42;2.53;;;2.33;;
1350;SDS011;669;50.206;9.998;2022-08-03T05:56:11;2.37;;;2.17;;
1350;SDS011;669;50.206;9.998;2022-08-03T05:58:42;1.80;;;1.70;;
1350;SDS011;669;50.206;9.998;2022-08-03T06:01:12;2.27;;;2.13;;
1350;SDS011;669;50.206;9.998;2022-08-03T06:03:40;3.17;;;2.10;;
1350;SDS011;669;50.206;9.998;2022-08-03T06:06:08;2.30;;;2.10;;
1350;SDS011;669;50.206;9.998;2022-08-03T06:08:37;2.80;;;2.17;;
1350;SDS011;669;50.206;9.998;2022-08-03T06:11:05;2.03;;;1.93;;
1350;SDS011;669;50.206;9.998;2022-08-03T06:13:34;2.00;;;1.90;;
1350;SDS011;669;50.206;9.998;2022-08-03T06:16:02;3.50;;;2.23;;
1350;SDS011;669;50.206;9.998;2022-08-03T06:18:31;2.83;;;1.90;;
1350;SDS011;669;50.206;9.998;2022-08-03T06:20:59;2.17;;;1.97;;
1350;SDS011;669;50.206;9.998;2022-08-03T06:23:41;2.23;;;1.67;;
1350;SDS011;669;50.206;9.998;2022-08-03T06:26:20;1.87;;;1.47;;
1350;SDS011;669;50.206;9.998;2022-08-03T06:28:48;2.93;;;2.07;;
1350;SDS011;669;50.206;9.998;2022-08-03T06:31:19;2.10;;;2.00;;
1350;SDS011;669;50.206;9.998;2022-08-03T06:33:49;2.03;;;1.93;;
1350;SDS011;669;50.206;9.998;2022-08-03T06:36:37;1.70;;;1.60;;
1350;SDS011;669;50.206;9.998;2022-08-03T06:39:06;4.80;;;2.37;;
1350;SDS011;669;50.206;9.998;2022-08-03T06:41:35;1.70;;;1.60;;
1350;SDS011;669;50.206;9.998;2022-08-03T06:44:10;2.20;;;1.93;;
1350;SDS011;669;50.206;9.998;2022-08-03T06:46:38;1.67;;;1.60;;
1350;SDS011;669;50.206;9.998;2022-08-03T06:49:08;1.90;;;1.80;;
1350;SDS011;669;50.206;9.998;2022-08-03T06:51:36;2.30;;;1.90;;
1350;SDS011;669;50.206;9.998;2022-08-03T06:54:24;1.90;;;1.80;;
1350;SDS011;669;50.206;9.998;2022-08-03T06:56:52;1.90;;;1.80;;
1350;SDS011;669;50.206;9.998;2022-08-03T06:59:20;1.90;;;1.80;;
1350;SDS011;669;50.206;9.998;2022-08-03T07:02:08;2.00;;;1.90;;
1350;SDS011;669;50.206;9.998;2022-08-03T07:04:38;1.67;;;1.57;;
1350;SDS011;669;50.206;9.998;2022-08-03T07:07:06;2.20;;;2.00;;
1350;SDS011;669;50.206;9.998;2022-08-03T07:09:34;1.63;;;1.53;;
1350;SDS011;669;50.206;9.998;2022-08-03T07:12:02;4.90;;;1.70;;
1350;SDS011;669;50.206;9.998;2022-08-03T07:14:31;1.83;;;1.77;;
1350;SDS011;669;50.206;9.998;2022-08-03T07:16:59;1.97;;;1.87;;
1350;SDS011;669;50.206;9.998;2022-08-03T07:19:38;1.80;;;1.70;;
1350;SDS011;669;50.206;9.998;2022-08-03T07:22:06;1.93;;;1.83;;
1350;SDS011;669;50.206;9.998;2022-08-03T07:24:34;2.40;;;2.20;;
1350;SDS011;669;50.206;9.998;2022-08-03T07:27:02;2.00;;;1.90;;
1350;SDS011;669;50.206;9.998;2022-08-03T07:29:30;1.83;;;1.73;;
1350;SDS011;669;50.206;9.998;2022-08-03T07:32:00;2.93;;;1.97;;
1350;SDS011;669;50.206;9.998;2022-08-03T07:34:28;2.23;;;2.13;;
1350;SDS011;669;50.206;9.998;2022-08-03T07:36:57;2.17;;;1.97;;
1350;SDS011;669;50.206;9.998;2022-08-03T07:39:25;2.60;;;1.60;;
1350;SDS011;669;50.206;9.998;2022-08-03T07:41:53;1.93;;;1.83;;
1350;SDS011;669;50.206;9.998;2022-08-03T07:44:21;1.63;;;1.53;;
1350;SDS011;669;50.206;9.998;2022-08-03T07:46:49;2.20;;;2.10;;
1350;SDS011;669;50.206;9.998;2022-08-03T07:49:17;1.87;;;1.80;;
1350;SDS011;669;50.206;9.998;2022-08-03T07:51:45;1.90;;;1.80;;
1350;SDS011;669;50.206;9.998;2022-08-03T07:54:34;1.70;;;1.70;;
1350;SDS011;669;50.206;9.998;2022-08-03T07:57:02;1.60;;;1.50;;
1350;SDS011;669;50.206;9.998;2022-08-03T07:59:30;2.40;;;2.30;;
1350;SDS011;669;50.206;9.998;2022-08-03T08:02:20;1.87;;;1.77;;
1350;SDS011;669;50.206;9.998;2022-08-03T08:04:48;1.70;;;1.60;;
1350;SDS011;669;50.206;9.998;2022-08-03T08:07:16;1.60;;;1.50;;
1350;SDS011;669;50.206;9.998;2022-08-03T08:09:47;1.60;;;1.50;;
1350;SDS011;669;50.206;9.998;2022-08-03T08:12:15;2.20;;;1.70;;
1350;SDS011;669;50.206;9.998;2022-08-03T08:14:43;3.37;;;1.90;;
1350;SDS011;669;50.206;9.998;2022-08-03T08:17:12;2.07;;;1.97;;
1350;SDS011;669;50.206;9.998;2022-08-03T08:19:40;1.77;;;1.67;;
1350;SDS011;669;50.206;9.998;2022-08-03T08:22:16;2.80;;;1.73;;
1350;SDS011;669;50.206;9.998;2022-08-03T08:24:56;1.87;;;1.40;;
1350;SDS011;669;50.206;9.998;2022-08-03T08:27:26;1.67;;;1.67;;
1350;SDS011;669;50.206;9.998;2022-08-03T08:30:15;1.67;;;1.57;;
1350;SDS011;669;50.206;9.998;2022-08-03T08:32:45;2.03;;;1.83;;
1350;SDS011;669;50.206;9.998;2022-08-03T08:35:14;1.60;;;1.50;;
1350;SDS011;669;50.206;9.998;2022-08-03T08:37:43;1.80;;;1.70;;
1350;SDS011;669;50.206;9.998;2022-08-03T08:40:17;1.50;;;1.40;;
1350;SDS011;669;50.206;9.998;2022-08-03T08:42:48;1.77;;;1.67;;
1350;SDS011;669;50.206;9.998;2022-08-03T08:45:23;1.47;;;1.47;;
1350;SDS011;669;50.206;9.998;2022-08-03T08:47:52;4.50;;;1.90;;
1350;SDS011;669;50.206;9.998;2022-08-03T08:50:28;3.80;;;1.63;;
1350;SDS011;669;50.206;9.998;2022-08-03T08:52:59;1.50;;;1.50;;
1350;SDS011;669;50.206;9.998;2022-08-03T08:55:30;1.50;;;1.50;;
1350;SDS011;669;50.206;9.998;2022-08-03T08:58:19;1.60;;;1.50;;
1350;SDS011;669;50.206;9.998;2022-08-03T09:00:48;1.57;;;1.57;;
1350;SDS011;669;50.206;9.998;2022-08-03T09:03:17;1.70;;;1.60;;
1350;SDS011;669;50.206;9.998;2022-08-03T09:05:56;2.00;;;1.60;;
1350;SDS011;669;50.206;9.998;2022-08-03T09:08:27;2.07;;;1.83;;
1350;SDS011;669;50.206;9.998;2022-08-03T09:10:57;1.77;;;1.67;;
1350;SDS011;669;50.206;9.998;2022-08-03T09:13:25;2.03;;;1.60;;
1350;SDS011;669;50.206;9.998;2022-08-03T09:16:07;1.80;;;1.50;;
1350;SDS011;669;50.206;9.998;2022-08-03T09:18:37;1.60;;;1.60;;
1350;SDS011;669;50.206;9.998;2022-08-03T09:21:15;1.33;;;1.33;;
1350;SDS011;669;50.206;9.998;2022-08-03T09:24:01;1.20;;;1.20;;
1350;SDS011;669;50.206;9.998;2022-08-03T09:26:48;1.40;;;1.40;;
1350;SDS011;669;50.206;9.998;2022-08-03T09:29:19;1.70;;;1.60;;
1350;SDS011;669;50.206;9.998;2022-08-03T09:31:47;2.30;;;1.90;;
1350;SDS011;669;50.206;9.998;2022-08-03T09:34:15;1.47;;;1.37;;
1350;SDS011;669;50.206;9.998;2022-08-03T09:36:45;2.13;;;1.93;;
1350;SDS011;669;50.206;9.998;2022-08-03T09:39:14;1.50;;;1.27;;
1350;SDS011;669;50.206;9.998;2022-08-03T09:41:45;2.03;;;1.83;;
1350;SDS011;669;50.206;9.998;2022-08-03T09:44:15;1.60;;;1.50;;
1350;SDS011;669;50.206;9.998;2022-08-03T09:46:51;3.97;;;1.70;;
1350;SDS011;669;50.206;9.998;2022-08-03T09:49:21;1.83;;;1.67;;
1350;SDS011;669;50.206;9.998;2022-08-03T09:51:50;2.53;;;1.73;;
1350;SDS011;669;50.206;9.998;2022-08-03T09:54:38;1.70;;;1.60;;
1350;SDS011;669;50.206;9.998;2022-08-03T09:57:08;3.30;;;1.33;;
1350;SDS011;669;50.206;9.998;2022-08-03T09:59:47;1.83;;;1.83;;
1350;SDS011;669;50.206;9.998;2022-08-03T10:02:19;1.70;;;1.60;;
1350;SDS011;669;50.206;9.998;2022-08-03T10:04:49;1.50;;;1.40;;
1350;SDS011;669;50.206;9.998;2022-08-03T10:07:18;1.67;;;1.60;;
1350;SDS011;669;50.206;9.998;2022-08-03T10:09:54;2.20;;;1.43;;
1350;SDS011;669;50.206;9.998;2022-08-03T10:12:45;2.60;;;1.83;;
1350;SDS011;669;50.206;9.998;2022-08-03T10:15:14;1.37;;;1.27;;
1350;SDS011;669;50.206;9.998;2022-08-03T10:18:02;1.60;;;1.50;;
1350;SDS011;669;50.206;9.998;2022-08-03T10:20:31;1.50;;;1.50;;
1350;SDS011;669;50.206;9.998;2022-08-03T10:23:03;1.43;;;1.43;;
1350;SDS011;669;50.206;9.998;2022-08-03T10:25:33;1.60;;;1.50;;
1350;SDS011;669;50.206;9.998;2022-08-03T10:28:05;2.07;;;2.00;;
1350;SDS011;669;50.206;9.998;2022-08-03T10:30:37;2.23;;;1.50;;
1350;SDS011;669;50.206;9.998;2022-08-03T10:33:12;1.57;;;1.47;;
1350;SDS011;669;50.206;9.998;2022-08-03T10:36:04;2.40;;;1.60;;
1350;SDS011;669;50.206;9.998;2022-08-03T10:38:36;1.83;;;1.30;;
1350;SDS011;669;50.206;9.998;2022-08-03T10:41:06;2.00;;;1.57;;
1350;SDS011;669;50.206;9.998;2022-08-03T10:43:37;2.13;;;1.70;;
1350;SDS011;669;50.206;9.998;2022-08-03T10:46:14;1.93;;;1.70;;
1350;SDS011;669;50.206;9.998;2022-08-03T10:48:43;1.20;;;1.20;;
1350;SDS011;669;50.206;9.998;2022-08-03T10:51:12;1.40;;;1.30;;
1350;SDS011;669;50.206;9.998;2022-08-03T10:53:41;1.73;;;1.53;;
1350;SDS011;669;50.206;9.998;2022-08-03T10:56:39;1.67;;;1.57;;
1350;SDS011;669;50.206;9.998;2022-08-03T10:59:57;1.27;;;1.23;;
1350;SDS011;669;50.206;9.998;2022-08-03T11:05:32;1.40;;;1.30;;
1350;SDS011;669;50.206;9.998;2022-08-03T11:08:17;1.33;;;1.33;;
1350;SDS011;669;50.206;9.998;2022-08-03T11:10:46;1.20;;;1.20;;
1350;SDS011;669;50.206;9.998;2022-08-03T11:13:15;2.23;;;1.50;;
1350;SDS011;669;50.206;9.998;2022-08-03T11:15:47;1.53;;;1.43;;
1350;SDS011;669;50.206;9.998;2022-08-03T11:18:25;1.60;;;1.60;;
1350;SDS011;669;50.206;9.998;2022-08-03T11:20:53;3.90;;;1.40;;
1350;SDS011;669;50.206;9.998;2022-08-03T11:23:42;4.90;;;1.80;;
1350;SDS011;669;50.206;9.998;2022-08-03T11:26:31;1.97;;;1.77;;
1350;SDS011;669;50.206;9.998;2022-08-03T11:31:55;1.17;;;1.17;;
1350;SDS011;669;50.206;9.998;2022-08-03T11:34:24;2.37;;;1.57;;
1350;SDS011;669;50.206;9.998;2022-08-03T11:39:49;3.03;;;1.30;;
1350;SDS011;669;50.206;9.998;2022-08-03T11:42:38;1.30;;;1.30;;
1350;SDS011;669;50.206;9.998;2022-08-03T11:45:13;1.93;;;1.23;;
1350;SDS011;669;50.206;9.998;2022-08-03T11:47:43;7.13;;;1.77;;
1350;SDS011;669;50.206;9.998;2022-08-03T11:50:16;1.23;;;1.23;;
1350;SDS011;669;50.206;9.998;2022-08-03T11:52:45;1.70;;;1.60;;
1350;SDS011;669;50.206;9.998;2022-08-03T11:55:16;2.53;;;1.33;;
1350;SDS011;669;50.206;9.998;2022-08-03T11:57:47;3.03;;;1.30;;
1350;SDS011;669;50.206;9.998;2022-08-03T12:00:35;1.33;;;1.30;;
1350;SDS011;669;50.206;9.998;2022-08-03T12:03:05;1.20;;;1.20;;
1350;SDS011;669;50.206;9.998;2022-08-03T12:05:42;1.27;;;1.27;;
1350;SDS011;669;50.206;9.998;2022-08-03T12:08:29;1.40;;;1.40;;
1350;SDS011;669;50.206;9.998;2022-08-03T12:10:58;1.70;;;1.60;;
1350;SDS011;669;50.206;9.998;2022-08-03T12:13:35;4.43;;;1.30;;
1350;SDS011;669;50.206;9.998;2022-08-03T12:16:24;1.70;;;1.40;;
1350;SDS011;669;50.206;9.998;2022-08-03T12:18:55;1.37;;;1.37;;
1350;SDS011;669;50.206;9.998;2022-08-03T12:21:24;1.23;;;1.10;;
1350;SDS011;669;50.206;9.998;2022-08-03T12:23:55;1.60;;;1.60;;
1350;SDS011;669;50.206;9.998;2022-08-03T12:26:25;2.40;;;1.70;;
1350;SDS011;669;50.206;9.998;2022-08-03T12:28:54;1.77;;;1.67;;
1350;SDS011;669;50.206;9.998;2022-08-03T12:31:22;1.30;;;1.23;;
1350;SDS011;669;50.206;9.998;2022-08-03T12:33:54;1.53;;;1.40;;
1350;SDS011;669;50.206;9.998;2022-08-03T12:36:24;1.30;;;1.30;;
1350;SDS011;669;50.206;9.998;2022-08-03T12:38:53;1.07;;;1.07;;
1350;SDS011;669;50.206;9.998;2022-08-03T12:41:27;1.20;;;1.20;;
1350;SDS011;669;50.206;9.998;2022-08-03T12:43:56;1.43;;;1.07;;
1350;SDS011;669;50.206;9.998;2022-08-03T12:46:28;1.80;;;1.70;;
1350;SDS011;669;50.206;9.998;2022-08-03T12:49:00;1.50;;;1.40;;
1350;SDS011;669;50.206;9.998;2022-08-03T12:51:30;4.83;;;1.83;;
1350;SDS011;669;50.206;9.998;2022-08-03T12:53:59;1.80;;;1.70;;
1350;SDS011;669;50.206;9.998;2022-08-03T12:56:28;1.47;;;1.37;;
1350;SDS011;669;50.206;9.998;2022-08-03T12:58:56;1.60;;;1.50;;
1350;SDS011;669;50.206;9.998;2022-08-03T13:01:24;1.90;;;1.10;;
1350;SDS011;669;50.206;9.998;2022-08-03T13:03:53;1.20;;;1.20;;
1350;SDS011;669;50.206;9.998;2022-08-03T13:06:23;4.83;;;1.57;;
1350;SDS011;669;50.206;9.998;2022-08-03T13:09:02;1.43;;;1.43;;
1350;SDS011;669;50.206;9.998;2022-08-03T13:11:31;1.27;;;1.27;;
1350;SDS011;669;50.206;9.998;2022-08-03T13:14:20;1.03;;;1.03;;
1350;SDS011;669;50.206;9.998;2022-08-03T13:16:49;1.20;;;1.20;;
1350;SDS011;669;50.206;9.998;2022-08-03T13:19:17;1.63;;;1.10;;
1350;SDS011;669;50.206;9.998;2022-08-03T13:21:46;2.93;;;1.30;;
1350;SDS011;669;50.206;9.998;2022-08-03T13:24:29;2.67;;;1.60;;
1350;SDS011;669;50.206;9.998;2022-08-03T13:26:58;1.33;;;1.23;;
1350;SDS011;669;50.206;9.998;2022-08-03T13:29:47;1.63;;;1.60;;
1350;SDS011;669;50.206;9.998;2022-08-03T13:32:15;1.60;;;1.50;;
1350;SDS011;669;50.206;9.998;2022-08-03T13:34:43;2.10;;;1.50;;
1350;SDS011;669;50.206;9.998;2022-08-03T13:37:13;1.43;;;1.43;;
1350;SDS011;669;50.206;9.998;2022-08-03T13:39:41;1.50;;;1.50;;
1350;SDS011;669;50.206;9.998;2022-08-03T13:42:25;1.60;;;1.50;;
1350;SDS011;669;50.206;9.998;2022-08-03T13:44:53;2.00;;;1.90;;
1350;SDS011;669;50.206;9.998;2022-08-03T13:47:22;2.23;;;1.63;;
1350;SDS011;669;50.206;9.998;2022-08-03T13:49:50;1.63;;;1.53;;
1350;SDS011;669;50.206;9.998;2022-08-03T13:52:28;2.00;;;1.90;;
1350;SDS011;669;50.206;9.998;2022-08-03T13:54:57;1.37;;;1.37;;
1350;SDS011;669;50.206;9.998;2022-08-03T13:57:26;1.30;;;1.20;;
1350;SDS011;669;50.206;9.998;2022-08-03T14:00:15;1.13;;;1.13;;
1350;SDS011;669;50.206;9.998;2022-08-03T14:02:53;2.20;;;1.87;;
1350;SDS011;669;50.206;9.998;2022-08-03T14:05:30;1.50;;;1.50;;
1350;SDS011;669;50.206;9.998;2022-08-03T14:08:00;1.57;;;1.47;;
1350;SDS011;669;50.206;9.998;2022-08-03T14:10:31;1.73;;;1.63;;
1350;SDS011;669;50.206;9.998;2022-08-03T14:13:00;1.70;;;1.67;;
1350;SDS011;669;50.206;9.998;2022-08-03T14:15:29;1.23;;;1.23;;
1350;SDS011;669;50.206;9.998;2022-08-03T14:18:02;1.43;;;1.43;;
1350;SDS011;669;50.206;9.998;2022-08-03T14:20:30;1.87;;;1.77;;
1350;SDS011;669;50.206;9.998;2022-08-03T14:23:15;1.73;;;1.63;;
1350;SDS011;669;50.206;9.998;2022-08-03T14:25:43;1.50;;;1.40;;
1350;SDS011;669;50.206;9.998;2022-08-03T14:28:17;1.50;;;1.50;;
1350;SDS011;669;50.206;9.998;2022-08-03T14:30:47;1.53;;;1.43;;
1350;SDS011;669;50.206;9.998;2022-08-03T14:33:16;1.80;;;1.70;;
1350;SDS011;669;50.206;9.998;2022-08-03T14:35:44;2.30;;;1.70;;
1350;SDS011;669;50.206;9.998;2022-08-03T14:38:12;1.60;;;1.60;;
1350;SDS011;669;50.206;9.998;2022-08-03T14:40:42;1.70;;;1.60;;
1350;SDS011;669;50.206;9.998;2022-08-03T14:43:10;1.30;;;1.30;;
1350;SDS011;669;50.206;9.998;2022-08-03T14:45:38;1.53;;;1.50;;
1350;SDS011;669;50.206;9.998;2022-08-03T14:48:06;1.30;;;1.30;;
1350;SDS011;669;50.206;9.998;2022-08-03T14:50:54;1.77;;;1.40;;
1350;SDS011;669;50.206;9.998;2022-08-03T14:53:22;1.70;;;1.60;;
1350;SDS011;669;50.206;9.998;2022-08-03T14:55:51;1.23;;;1.23;;
1350;SDS011;669;50.206;9.998;2022-08-03T14:58:19;1.87;;;1.77;;
1350;SDS011;669;50.206;9.998;2022-08-03T15:00:49;1.67;;;1.57;;
1350;SDS011;669;50.206;9.998;2022-08-03T15:03:18;1.60;;;1.60;;
1350;SDS011;669;50.206;9.998;2022-08-03T15:05:49;1.43;;;1.43;;
1350;SDS011;669;50.206;9.998;2022-08-03T15:08:18;1.50;;;1.40;;
1350;SDS011;669;50.206;9.998;2022-08-03T15:10:46;2.00;;;1.90;;
1350;SDS011;669;50.206;9.998;2022-08-03T15:13:16;1.80;;;1.70;;
1350;SDS011;669;50.206;9.998;2022-08-03T15:15:44;2.90;;;2.00;;
1350;SDS011;669;50.206;9.998;2022-08-03T15:18:13;1.83;;;1.73;;
1350;SDS011;669;50.206;9.998;2022-08-03T15:20:41;1.80;;;1.70;;
1350;SDS011;669;50.206;9.998;2022-08-03T15:23:11;1.60;;;1.50;;
1350;SDS011;669;50.206;9.998;2022-08-03T15:25:40;2.10;;;2.00;;
1350;SDS011;669;50.206;9.998;2022-08-03T15:28:30;2.70;;;2.50;;
1350;SDS011;669;50.206;9.998;2022-08-03T15:30:58;1.70;;;1.60;;
1350;SDS011;669;50.206;9.998;2022-08-03T15:33:26;1.60;;;1.50;;
1350;SDS011;669;50.206;9.998;2022-08-03T15:35:55;1.80;;;1.70;;
1350;SDS011;669;50.206;9.998;2022-08-03T15:38:23;1.30;;;1.30;;
1350;SDS011;669;50.206;9.998;2022-08-03T15:40:51;1.80;;;1.70;;
1350;SDS011;669;50.206;9.998;2022-08-03T15:43:20;1.87;;;1.70;;
1350;SDS011;669;50.206;9.998;2022-08-03T15:45:50;2.10;;;2.00;;
1350;SDS011;669;50.206;9.998;2022-08-03T15:48:38;1.90;;;1.80;;
1350;SDS011;669;50.206;9.998;2022-08-03T15:51:06;2.37;;;2.07;;
1350;SDS011;669;50.206;9.998;2022-08-03T15:53:35;1.70;;;1.60;;
1350;SDS011;669;50.206;9.998;2022-08-03T15:56:04;2.00;;;1.70;;
1350;SDS011;669;50.206;9.998;2022-08-03T15:58:39;1.80;;;1.70;;
1350;SDS011;669;50.206;9.998;2022-08-03T16:01:29;1.83;;;1.73;;
1350;SDS011;669;50.206;9.998;2022-08-03T16:03:57;1.53;;;1.43;;
1350;SDS011;669;50.206;9.998;2022-08-03T16:06:25;1.40;;;1.40;;
1350;SDS011;669;50.206;9.998;2022-08-03T16:08:59;1.73;;;1.60;;
1350;SDS011;669;50.206;9.998;2022-08-03T16:11:27;1.80;;;1.70;;